createdAt,value
2023-07-18T00:00:52.417Z,21.69
2023-07-18T00:03:20.279Z,21.61
2023-07-18T00:05:47.809Z,21.58
2023-07-18T00:08:15.576Z,21.55
2023-07-18T00:10:43.624Z,21.57
2023-07-18T00:13:10.885Z,21.53
2023-07-18T00:15:38.730Z,21.54
2023-07-18T00:18:05.922Z,21.53
2023-07-18T00:20:33.354Z,21.39
2023-07-18T00:23:00.734Z,21.38
2023-07-18T00:25:30.862Z,21.20
2023-07-18T00:27:57.929Z,21.20
2023-07-18T00:30:27.683Z,21.15
2023-07-18T00:32:56.436Z,20.91
2023-07-18T00:35:24.000Z,20.86
2023-07-18T00:37:51.241Z,20.78
2023-07-18T00:40:18.407Z,20.85
2023-07-18T00:42:50.969Z,20.75
2023-07-18T00:45:18.332Z,20.58
2023-07-18T00:47:48.610Z,20.55
2023-07-18T00:50:17.451Z,20.55
2023-07-18T00:52:48.539Z,20.54
2023-07-18T00:55:16.311Z,20.48
2023-07-18T00:57:45.921Z,20.48
2023-07-18T01:00:14.620Z,20.35
2023-07-18T01:02:43.446Z,20.50
2023-07-18T01:05:12.174Z,20.24
2023-07-18T01:07:39.531Z,20.47
2023-07-18T01:10:26.882Z,20.24
2023-07-18T01:13:04.854Z,20.16
2023-07-18T01:15:33.973Z,20.29
2023-07-18T01:18:08.297Z,20.51
2023-07-18T01:20:37.158Z,20.24
2023-07-18T01:23:05.558Z,19.94
2023-07-18T01:25:34.775Z,19.90
2023-07-18T01:28:04.911Z,19.95
2023-07-18T01:30:32.124Z,20.04
2023-07-18T01:32:59.570Z,20.16
2023-07-18T01:35:28.277Z,19.52
2023-07-18T01:37:57.581Z,19.57
2023-07-18T01:40:25.058Z,19.86
2023-07-18T01:42:56.317Z,19.79
2023-07-18T01:45:25.835Z,19.72
2023-07-18T01:47:53.362Z,19.48
2023-07-18T01:50:20.805Z,19.19
2023-07-18T01:52:49.142Z,19.00
2023-07-18T01:55:17.381Z,19.02
2023-07-18T01:57:46.779Z,19.27
2023-07-18T02:00:20.042Z,18.83
2023-07-18T02:02:49.571Z,19.25
2023-07-18T02:05:25.395Z,18.92
2023-07-18T02:07:53.252Z,19.48
2023-07-18T02:10:22.199Z,18.94
2023-07-18T02:12:51.228Z,18.86
2023-07-18T02:15:19.306Z,18.66
2023-07-18T02:17:47.128Z,18.61
2023-07-18T02:20:15.377Z,18.82
2023-07-18T02:22:44.084Z,18.69
2023-07-18T02:25:12.022Z,18.87
2023-07-18T02:27:41.452Z,18.57
2023-07-18T02:30:13.327Z,18.53
2023-07-18T02:32:43.256Z,18.70
2023-07-18T02:35:12.669Z,18.92
2023-07-18T02:37:39.879Z,18.87
2023-07-18T02:40:11.227Z,18.75
2023-07-18T02:42:39.507Z,18.86
2023-07-18T02:45:09.691Z,18.61
2023-07-18T02:47:37.340Z,18.97
2023-07-18T02:50:04.953Z,18.98
2023-07-18T02:52:32.744Z,18.90
2023-07-18T02:55:00.014Z,18.60
2023-07-18T02:57:27.504Z,18.45
2023-07-18T02:59:54.846Z,18.40
2023-07-18T03:02:22.237Z,18.89
2023-07-18T03:04:49.798Z,18.74
2023-07-18T03:07:18.777Z,18.59
2023-07-18T03:09:46.990Z,18.11
2023-07-18T03:12:14.601Z,18.00
2023-07-18T03:14:42.725Z,17.73
2023-07-18T03:17:10.111Z,17.80
2023-07-18T03:19:37.375Z,17.92
2023-07-18T03:22:05.564Z,18.16
2023-07-18T03:24:36.025Z,17.88
2023-07-18T03:27:04.403Z,17.74
2023-07-18T03:29:32.048Z,17.84
2023-07-18T03:32:02.780Z,17.89
2023-07-18T03:34:30.174Z,17.90
2023-07-18T03:36:57.538Z,17.77
2023-07-18T03:39:24.792Z,17.82
2023-07-18T03:41:52.310Z,17.63
2023-07-18T03:44:19.478Z,17.58
2023-07-18T03:46:46.881Z,17.06
2023-07-18T03:49:14.183Z,17.11
2023-07-18T03:51:41.440Z,17.55
2023-07-18T03:54:10.251Z,17.74
2023-07-18T03:56:37.950Z,17.52
2023-07-18T03:59:05.140Z,17.39
2023-07-18T04:01:32.447Z,17.40
2023-07-18T04:03:59.715Z,17.43
2023-07-18T04:06:26.873Z,17.76
2023-07-18T04:08:55.051Z,17.65
2023-07-18T04:11:22.446Z,17.28
2023-07-18T04:13:50.026Z,17.24
2023-07-18T04:16:17.494Z,17.70
2023-07-18T04:18:45.360Z,17.55
2023-07-18T04:21:12.640Z,17.45
2023-07-18T04:23:39.816Z,17.57
2023-07-18T04:26:10.400Z,17.53
2023-07-18T04:28:38.039Z,17.44
2023-07-18T04:31:05.665Z,17.47
2023-07-18T04:33:35.885Z,17.28
2023-07-18T04:36:03.576Z,17.44
2023-07-18T04:38:31.359Z,17.75
2023-07-18T04:40:59.222Z,17.70
2023-07-18T04:43:26.628Z,17.76
2023-07-18T04:45:53.780Z,17.77
2023-07-18T04:48:21.231Z,17.81
2023-07-18T04:50:53.370Z,17.70
2023-07-18T04:53:20.506Z,17.83
2023-07-18T04:55:52.062Z,17.94
2023-07-18T04:58:20.555Z,17.88
2023-07-18T05:00:47.689Z,17.92
2023-07-18T05:03:14.922Z,17.86
2023-07-18T05:05:45.253Z,18.38
2023-07-18T05:08:13.414Z,18.48
2023-07-18T05:10:41.930Z,18.31
2023-07-18T05:13:09.585Z,18.44
2023-07-18T05:15:37.465Z,18.18
2023-07-18T05:18:05.511Z,18.36
2023-07-18T05:20:33.140Z,18.55
2023-07-18T05:23:01.023Z,18.84
2023-07-18T05:25:31.040Z,19.03
2023-07-18T05:27:59.590Z,18.72
2023-07-18T05:30:28.060Z,18.82
2023-07-18T05:32:55.472Z,18.95
2023-07-18T05:35:22.735Z,19.07
2023-07-18T05:37:50.083Z,18.84
2023-07-18T05:40:21.805Z,18.68
2023-07-18T05:42:54.345Z,19.15
2023-07-18T05:45:21.692Z,19.32
2023-07-18T05:47:49.000Z,19.17
2023-07-18T05:50:17.867Z,18.97
2023-07-18T05:52:45.390Z,19.01
2023-07-18T05:55:15.359Z,19.18
2023-07-18T05:57:42.729Z,19.07
2023-07-18T06:00:13.320Z,19.33
2023-07-18T06:02:41.032Z,19.21
2023-07-18T06:05:09.382Z,19.34
2023-07-18T06:07:36.582Z,19.50
2023-07-18T06:10:04.882Z,19.44
2023-07-18T06:12:32.249Z,19.38
2023-07-18T06:14:59.690Z,19.66
2023-07-18T06:17:26.892Z,19.91
2023-07-18T06:19:54.188Z,19.96
2023-07-18T06:22:22.056Z,19.76
2023-07-18T06:24:49.417Z,20.07
2023-07-18T06:27:16.607Z,20.11
2023-07-18T06:29:45.859Z,20.30
2023-07-18T06:32:13.571Z,20.27
2023-07-18T06:34:42.260Z,20.33
2023-07-18T06:37:11.441Z,20.60
2023-07-18T06:39:39.574Z,20.53
2023-07-18T06:42:09.766Z,20.56
2023-07-18T06:44:37.034Z,20.64
2023-07-18T06:47:04.431Z,20.81
2023-07-18T06:49:32.262Z,20.80
2023-07-18T06:51:59.585Z,20.87
2023-07-18T06:54:26.726Z,21.10
2023-07-18T06:56:53.946Z,21.18
2023-07-18T06:59:21.109Z,21.25
2023-07-18T07:01:48.299Z,21.31
2023-07-18T07:04:16.598Z,21.40
2023-07-18T07:06:44.179Z,21.45
2023-07-18T07:09:14.596Z,21.49
2023-07-18T07:11:44.913Z,21.64
2023-07-18T07:14:12.826Z,21.53
2023-07-18T07:16:40.921Z,21.54
2023-07-18T07:19:08.928Z,21.67
2023-07-18T07:21:36.265Z,21.71
2023-07-18T07:24:03.695Z,21.72
2023-07-18T07:26:30.904Z,21.76
2023-07-18T07:28:58.084Z,21.80
2023-07-18T07:31:25.949Z,21.98
2023-07-18T07:33:53.877Z,22.05
2023-07-18T07:36:22.069Z,21.91
2023-07-18T07:38:49.742Z,21.91
2023-07-18T07:41:17.300Z,22.09
2023-07-18T07:43:44.760Z,22.19
2023-07-18T07:46:12.026Z,22.34
2023-07-18T07:48:41.609Z,22.41
2023-07-18T07:51:08.875Z,22.48
2023-07-18T07:53:36.095Z,22.57
2023-07-18T07:56:03.668Z,22.71
2023-07-18T07:58:31.169Z,22.85
2023-07-18T08:00:58.431Z,22.88
2023-07-18T08:03:25.654Z,22.99
2023-07-18T08:05:52.802Z,23.15
2023-07-18T08:08:19.952Z,23.10
2023-07-18T08:10:47.189Z,22.95
2023-07-18T08:13:18.109Z,23.17
2023-07-18T08:15:45.346Z,23.25
2023-07-18T08:18:12.516Z,23.18
2023-07-18T08:20:39.746Z,23.16
2023-07-18T08:23:07.288Z,23.00
2023-07-18T08:25:34.483Z,23.14
2023-07-18T08:28:03.296Z,23.28
2023-07-18T08:30:30.957Z,23.31
2023-07-18T08:32:58.193Z,23.41
2023-07-18T08:35:25.360Z,23.37
2023-07-18T08:37:52.565Z,23.57
2023-07-18T08:40:19.763Z,23.54
2023-07-18T08:42:48.432Z,23.55
2023-07-18T08:45:16.682Z,23.60
2023-07-18T08:47:45.050Z,23.74
2023-07-18T08:50:12.403Z,23.71
2023-07-18T08:52:40.804Z,23.84
2023-07-18T08:55:09.055Z,23.76
2023-07-18T08:57:36.963Z,23.64
2023-07-18T09:00:05.776Z,23.53
2023-07-18T09:02:33.775Z,23.69
2023-07-18T09:05:00.986Z,23.91
2023-07-18T09:07:28.599Z,24.09
2023-07-18T09:09:56.657Z,24.16
2023-07-18T09:12:23.844Z,24.20
2023-07-18T09:14:56.826Z,24.06
2023-07-18T09:17:24.049Z,24.20
2023-07-18T09:19:51.411Z,24.17
2023-07-18T09:22:18.574Z,24.37
2023-07-18T09:24:49.334Z,24.37
2023-07-18T09:27:19.788Z,24.60
2023-07-18T09:29:49.433Z,24.55
2023-07-18T09:32:20.873Z,24.38
2023-07-18T09:35:02.323Z,24.42
2023-07-18T09:37:29.874Z,24.39
2023-07-18T09:39:57.269Z,24.54
2023-07-18T09:42:25.700Z,24.34
2023-07-18T09:44:54.016Z,24.59
2023-07-18T09:47:21.837Z,24.71
2023-07-18T09:49:50.555Z,24.59
2023-07-18T09:52:23.340Z,24.58
2023-07-18T09:54:53.789Z,24.57
2023-07-18T09:57:22.673Z,24.52
2023-07-18T09:59:51.524Z,24.65
2023-07-18T10:02:18.843Z,24.82
2023-07-18T10:04:47.065Z,24.91
2023-07-18T10:07:14.611Z,24.84
2023-07-18T10:09:42.647Z,25.00
2023-07-18T10:12:11.108Z,24.97
2023-07-18T10:14:44.179Z,25.20
2023-07-18T10:17:26.147Z,25.18
2023-07-18T10:19:53.654Z,25.25
2023-07-18T10:22:32.260Z,25.28
2023-07-18T10:25:08.060Z,25.35
2023-07-18T10:27:38.295Z,25.30
2023-07-18T10:30:07.785Z,25.29
2023-07-18T10:32:38.432Z,25.15
2023-07-18T10:35:11.309Z,25.33
2023-07-18T10:37:42.936Z,25.43
2023-07-18T10:40:11.617Z,25.53
2023-07-18T10:42:43.779Z,25.56
2023-07-18T10:45:11.045Z,25.51
2023-07-18T10:47:38.795Z,25.55
2023-07-18T10:50:08.654Z,25.84
2023-07-18T10:52:36.188Z,25.34
2023-07-18T10:55:07.713Z,25.43
2023-07-18T10:57:37.149Z,25.38
2023-07-18T11:00:10.091Z,25.28
2023-07-18T11:02:42.598Z,25.53
2023-07-18T11:05:13.105Z,25.66
2023-07-18T11:07:46.818Z,25.36
2023-07-18T11:10:15.786Z,25.57
2023-07-18T11:12:44.499Z,25.69
2023-07-18T11:15:12.930Z,25.94
2023-07-18T11:17:40.347Z,25.67
2023-07-18T11:20:08.378Z,25.63
2023-07-18T11:22:36.886Z,25.77
2023-07-18T11:25:06.085Z,25.91
2023-07-18T11:27:33.813Z,26.04
2023-07-18T11:30:09.245Z,26.15
2023-07-18T11:32:41.862Z,26.12
2023-07-18T11:35:23.221Z,26.32
2023-07-18T11:37:54.779Z,26.45
2023-07-18T11:40:26.591Z,26.38
2023-07-18T11:42:58.983Z,26.34
2023-07-18T11:45:27.272Z,26.09
2023-07-18T11:47:56.725Z,26.33
2023-07-18T11:50:29.741Z,26.22
2023-07-18T11:52:59.478Z,26.34
2023-07-18T11:55:27.125Z,26.20
2023-07-18T11:57:55.217Z,26.22
2023-07-18T12:00:23.396Z,26.36
2023-07-18T12:02:50.891Z,26.44
2023-07-18T12:05:18.731Z,26.32
2023-07-18T12:07:46.857Z,26.38
2023-07-18T12:10:17.578Z,26.65
2023-07-18T12:12:46.104Z,26.76
2023-07-18T12:15:14.192Z,26.85
2023-07-18T12:17:42.016Z,27.08
2023-07-18T12:20:10.246Z,27.08
2023-07-18T12:22:38.831Z,26.74
2023-07-18T12:25:06.621Z,26.87
2023-07-18T12:27:35.325Z,26.99
2023-07-18T12:30:02.548Z,27.07
2023-07-18T12:32:32.294Z,27.07
2023-07-18T12:34:59.858Z,27.13
2023-07-18T12:37:27.015Z,27.16
2023-07-18T12:39:54.225Z,27.06
2023-07-18T12:42:21.416Z,27.11
2023-07-18T12:44:51.153Z,27.04
2023-07-18T12:47:18.300Z,27.13
2023-07-18T12:52:15.621Z,27.12
2023-07-18T12:54:42.775Z,27.05
2023-07-18T12:57:10.997Z,26.90
2023-07-18T12:59:38.248Z,26.80
2023-07-18T13:02:05.690Z,26.80
2023-07-18T13:04:32.966Z,26.84
2023-07-18T13:07:00.401Z,26.89
2023-07-18T13:09:27.668Z,26.97
2023-07-18T13:11:54.832Z,27.01
2023-07-18T13:14:22.100Z,26.95
2023-07-18T13:16:49.557Z,26.92
2023-07-18T13:19:17.330Z,27.09
2023-07-18T13:21:45.165Z,26.96
2023-07-18T13:24:12.397Z,27.11
2023-07-18T13:26:39.838Z,27.03
2023-07-18T13:29:07.264Z,27.11
2023-07-18T13:31:35.687Z,26.96
2023-07-18T13:34:04.061Z,26.76
2023-07-18T13:36:34.222Z,26.86
2023-07-18T13:39:02.019Z,26.82
2023-07-18T13:41:29.342Z,26.79
2023-07-18T13:43:56.516Z,26.79
2023-07-18T13:46:24.259Z,26.76
2023-07-18T13:48:53.179Z,26.55
2023-07-18T13:51:20.801Z,26.49
2023-07-18T13:53:48.128Z,26.46
2023-07-18T13:56:15.550Z,26.51
2023-07-18T13:58:42.719Z,26.62
2023-07-18T14:01:09.951Z,26.56
2023-07-18T14:03:37.353Z,26.57
2023-07-18T14:06:04.974Z,26.60
2023-07-18T14:08:33.842Z,26.68
2023-07-18T14:11:01.259Z,26.82
2023-07-18T14:13:28.394Z,26.81
2023-07-18T14:15:55.714Z,26.91
2023-07-18T14:18:23.175Z,26.96
2023-07-18T14:20:50.544Z,27.30
2023-07-18T14:23:18.605Z,27.65
2023-07-18T14:25:49.060Z,27.97
2023-07-18T14:28:17.326Z,28.31
2023-07-18T14:30:45.038Z,28.50
2023-07-18T14:33:17.840Z,28.63
2023-07-18T14:35:45.184Z,28.83
2023-07-18T14:38:12.370Z,28.57
2023-07-18T14:40:40.616Z,28.60
2023-07-18T14:43:10.125Z,28.81
2023-07-18T14:45:38.473Z,29.20
2023-07-18T14:48:09.569Z,29.37
2023-07-18T14:50:36.897Z,29.20
2023-07-18T14:53:05.252Z,29.35
2023-07-18T14:55:35.134Z,29.47
2023-07-18T14:58:05.204Z,29.62
2023-07-18T15:00:32.821Z,29.40
2023-07-18T15:03:00.258Z,29.77
2023-07-18T15:05:27.545Z,29.54
2023-07-18T15:07:54.742Z,29.92
2023-07-18T15:10:21.979Z,30.42
2023-07-18T15:12:49.767Z,30.21
2023-07-18T15:15:17.359Z,30.25
2023-07-18T15:17:46.301Z,30.22
2023-07-18T15:20:15.016Z,30.37
2023-07-18T15:22:43.151Z,30.41
2023-07-18T15:25:11.622Z,30.67
2023-07-18T15:27:41.964Z,30.51
2023-07-18T15:30:10.846Z,30.46
2023-07-18T15:32:39.955Z,30.73
2023-07-18T15:35:07.979Z,30.50
2023-07-18T15:37:35.654Z,30.37
2023-07-18T15:40:03.405Z,30.35
2023-07-18T15:42:33.406Z,30.63
2023-07-18T15:45:01.122Z,30.46
2023-07-18T15:47:28.460Z,30.16
2023-07-18T15:49:55.669Z,29.94
2023-07-18T15:52:27.514Z,29.87
2023-07-18T15:54:54.976Z,29.91
2023-07-18T15:57:23.269Z,29.61
2023-07-18T15:59:50.489Z,29.59
2023-07-18T16:02:17.763Z,29.33
2023-07-18T16:04:45.320Z,29.40
2023-07-18T16:07:12.552Z,29.27
2023-07-18T16:09:53.391Z,29.12
2023-07-18T16:12:20.657Z,29.17
2023-07-18T16:14:48.188Z,29.14
2023-07-18T16:17:16.035Z,29.04
2023-07-18T16:19:45.669Z,29.03
2023-07-18T16:22:13.119Z,29.15
2023-07-18T16:24:42.490Z,29.23
2023-07-18T16:27:09.691Z,29.28
2023-07-18T16:29:37.486Z,29.32
2023-07-18T16:32:05.210Z,29.29
2023-07-18T16:34:32.585Z,29.38
2023-07-18T16:36:59.765Z,29.57
2023-07-18T16:39:26.921Z,29.74
2023-07-18T16:41:54.173Z,29.71
2023-07-18T16:44:22.077Z,29.68
2023-07-18T16:46:49.559Z,29.54
2023-07-18T16:49:16.873Z,29.49
2023-07-18T16:51:44.207Z,29.78
2023-07-18T16:54:11.448Z,29.67
2023-07-18T16:56:38.601Z,29.57
2023-07-18T16:59:05.834Z,29.56
2023-07-18T17:01:33.220Z,29.69
2023-07-18T17:04:00.832Z,29.64
2023-07-18T17:06:28.097Z,29.57
2023-07-18T17:08:55.269Z,29.36
2023-07-18T17:11:22.529Z,29.54
2023-07-18T17:13:52.298Z,29.52
2023-07-18T17:16:19.973Z,29.53
2023-07-18T17:18:47.308Z,29.51
2023-07-18T17:21:14.475Z,29.63
2023-07-18T17:23:41.773Z,29.42
2023-07-18T17:26:10.070Z,29.17
2023-07-18T17:28:37.702Z,29.03
2023-07-18T17:31:05.037Z,28.96
2023-07-18T17:33:32.353Z,28.60
2023-07-18T17:35:59.678Z,28.72
2023-07-18T17:38:29.796Z,28.61
2023-07-18T17:40:57.294Z,28.55
2023-07-18T17:43:24.377Z,28.56
2023-07-18T17:45:51.845Z,28.37
2023-07-18T17:48:19.206Z,28.22
2023-07-18T17:50:46.352Z,28.21
2023-07-18T17:53:15.204Z,28.21
2023-07-18T17:55:44.289Z,28.12
2023-07-18T17:58:11.517Z,28.13
2023-07-18T18:00:38.717Z,28.01
2023-07-18T18:03:05.963Z,27.99
2023-07-18T18:05:45.146Z,27.80
2023-07-18T18:08:14.259Z,27.77
2023-07-18T18:10:42.634Z,27.65
2023-07-18T18:13:09.874Z,27.57
2023-07-18T18:15:41.143Z,27.53
2023-07-18T18:18:13.329Z,27.56
2023-07-18T18:20:40.646Z,27.47
2023-07-18T18:23:08.888Z,27.07
2023-07-18T18:25:38.551Z,27.07
2023-07-18T18:28:05.732Z,27.06
2023-07-18T18:30:33.141Z,26.90
2023-07-18T18:33:00.343Z,26.99
2023-07-18T18:35:29.800Z,26.94
2023-07-18T18:37:57.481Z,26.66
2023-07-18T18:40:24.759Z,26.60
2023-07-18T18:42:51.932Z,26.56
2023-07-18T18:45:19.256Z,26.49
2023-07-18T18:47:47.603Z,26.34
2023-07-18T18:50:18.757Z,25.88
2023-07-18T18:52:46.604Z,25.92
2023-07-18T18:55:19.562Z,26.04
2023-07-18T18:57:47.850Z,25.31
2023-07-18T19:00:15.963Z,25.09
2023-07-18T19:02:44.931Z,25.29
2023-07-18T19:05:12.618Z,25.54
2023-07-18T19:07:39.942Z,25.34
2023-07-18T19:10:07.399Z,25.05
2023-07-18T19:12:34.888Z,24.74
2023-07-18T19:15:02.074Z,24.68
2023-07-18T19:17:29.568Z,24.69
2023-07-18T19:19:56.826Z,24.62
2023-07-18T19:22:24.143Z,24.54
2023-07-18T19:24:51.850Z,24.21
2023-07-18T19:27:19.120Z,24.10
2023-07-18T19:29:46.375Z,24.32
2023-07-18T19:32:13.652Z,24.00
2023-07-18T19:34:44.840Z,23.76
2023-07-18T19:37:12.108Z,23.87
2023-07-18T19:39:39.328Z,24.13
2023-07-18T19:42:07.139Z,23.84
2023-07-18T19:44:35.598Z,23.75
2023-07-18T19:47:02.878Z,23.87
2023-07-18T19:49:30.142Z,24.24
2023-07-18T19:51:57.947Z,23.60
2023-07-18T19:54:26.089Z,23.49
2023-07-18T19:56:54.193Z,23.60
2023-07-18T19:59:21.433Z,23.65
2023-07-18T20:01:48.964Z,23.68
2023-07-18T20:04:16.300Z,23.79
2023-07-18T20:06:43.581Z,23.82
2023-07-18T20:09:10.754Z,23.46
2023-07-18T20:11:37.942Z,23.05
2023-07-18T20:14:05.071Z,22.92
2023-07-18T20:16:32.822Z,22.93
2023-07-18T20:19:02.839Z,23.09
2023-07-18T20:21:30.915Z,22.79
2023-07-18T20:23:58.269Z,22.66
2023-07-18T20:26:25.909Z,22.77
2023-07-18T20:28:53.059Z,22.89
2023-07-18T20:31:20.930Z,22.95
2023-07-18T20:33:48.508Z,22.61
2023-07-18T20:36:15.698Z,22.63
2023-07-18T20:38:44.091Z,22.70
2023-07-18T20:41:11.301Z,22.78
2023-07-18T20:43:38.521Z,22.65
2023-07-18T20:46:05.804Z,22.50
2023-07-18T20:48:35.881Z,22.48
2023-07-18T20:51:03.399Z,22.15
2023-07-18T20:53:30.696Z,22.49
2023-07-18T20:55:58.107Z,22.21
2023-07-18T20:58:25.321Z,21.95
2023-07-18T21:00:52.573Z,21.92
2023-07-18T21:03:19.744Z,21.68
2023-07-18T21:05:50.772Z,21.82
2023-07-18T21:08:18.731Z,21.74
2023-07-18T21:10:46.465Z,21.82
2023-07-18T21:13:13.699Z,21.83
2023-07-18T21:15:41.124Z,22.09
2023-07-18T21:18:08.356Z,21.80
2023-07-18T21:20:35.489Z,21.88
2023-07-18T21:23:05.568Z,22.07
2023-07-18T21:25:32.791Z,21.85
2023-07-18T21:28:00.133Z,21.65
2023-07-18T21:30:27.355Z,21.67
2023-07-18T21:32:54.596Z,21.67
2023-07-18T21:35:24.800Z,21.81
2023-07-18T21:37:52.291Z,21.78
2023-07-18T21:40:19.734Z,21.88
2023-07-18T21:42:49.040Z,21.72
2023-07-18T21:45:16.524Z,21.71
2023-07-18T21:47:43.966Z,21.53
2023-07-18T21:50:11.529Z,21.11
2023-07-18T21:52:38.765Z,21.44
2023-07-18T21:55:07.029Z,21.02
2023-07-18T21:57:34.282Z,21.40
2023-07-18T22:00:01.526Z,21.24
2023-07-18T22:02:33.276Z,21.41
2023-07-18T22:05:02.198Z,21.54
2023-07-18T22:07:31.152Z,21.52
2023-07-18T22:10:03.198Z,21.69
2023-07-18T22:12:30.591Z,21.85
2023-07-18T22:14:57.710Z,21.65
2023-07-18T22:17:24.994Z,21.40
2023-07-18T22:19:52.234Z,21.50
2023-07-18T22:22:19.403Z,21.63
2023-07-18T22:24:46.719Z,21.68
2023-07-18T22:27:14.014Z,21.58
2023-07-18T22:29:41.130Z,21.44
2023-07-18T22:32:09.130Z,21.78
2023-07-18T22:34:36.436Z,21.67
2023-07-18T22:37:03.924Z,21.60
2023-07-18T22:39:36.337Z,21.25
2023-07-18T22:42:18.901Z,21.36
2023-07-18T22:44:47.962Z,21.48
2023-07-18T22:47:16.260Z,21.49
2023-07-18T22:49:43.674Z,21.56
2023-07-18T22:52:18.804Z,21.11
2023-07-18T22:54:47.596Z,21.00
2023-07-18T22:57:15.594Z,21.24
2023-07-18T22:59:43.010Z,21.31
2023-07-18T23:02:10.161Z,21.32
2023-07-18T23:04:37.478Z,21.22
2023-07-18T23:07:05.520Z,21.25
2023-07-18T23:09:33.049Z,21.36
2023-07-18T23:12:00.151Z,20.85
2023-07-18T23:14:28.606Z,20.91
2023-07-18T23:16:56.879Z,20.97
2023-07-18T23:19:24.256Z,20.72
2023-07-18T23:21:51.736Z,20.78
2023-07-18T23:24:18.920Z,20.91
2023-07-18T23:26:46.393Z,21.04
2023-07-18T23:29:13.623Z,20.78
2023-07-18T23:31:40.743Z,20.66
2023-07-18T23:34:08.108Z,20.34
2023-07-18T23:36:35.281Z,20.55
2023-07-18T23:39:02.485Z,20.71
2023-07-18T23:41:29.764Z,20.66
2023-07-18T23:43:56.892Z,20.43
2023-07-18T23:46:24.088Z,20.81
2023-07-18T23:48:51.248Z,20.55
2023-07-18T23:51:18.727Z,20.59
2023-07-18T23:53:46.254Z,20.66
2023-07-18T23:56:13.438Z,20.26
2023-07-18T23:58:40.646Z,20.67
